createdAt,value
2018-07-17T00:04:20.979Z,5.53
2018-07-17T00:09:14.302Z,4.85
2018-07-17T00:14:08.261Z,4.83
2018-07-17T00:19:01.409Z,4.07
2018-07-17T00:23:54.633Z,4.77
2018-07-17T00:28:47.867Z,4.20
2018-07-17T00:33:41.167Z,4.23
2018-07-17T00:38:34.385Z,3.87
2018-07-17T00:43:27.587Z,3.00
2018-07-17T00:48:20.895Z,5.73
2018-07-17T00:53:14.103Z,3.72
2018-07-17T00:58:07.403Z,7.30
2018-07-17T01:03:06.326Z,4.12
2018-07-17T01:08:05.213Z,4.60
2018-07-17T01:12:57.873Z,3.63
2018-07-17T01:17:51.485Z,6.30
2018-07-17T01:22:44.730Z,3.53
2018-07-17T01:27:37.987Z,4.37
2018-07-17T01:32:31.194Z,6.43
2018-07-17T01:37:24.497Z,5.33
2018-07-17T01:42:17.714Z,5.80
2018-07-17T01:47:10.997Z,6.58
2018-07-17T01:52:04.433Z,3.90
2018-07-17T01:56:57.658Z,3.60
2018-07-17T02:01:50.898Z,4.33
2018-07-17T02:06:44.082Z,4.03
2018-07-17T02:11:37.271Z,7.50
2018-07-17T02:16:30.562Z,3.50
2018-07-17T02:21:23.781Z,6.87
2018-07-17T02:26:17.003Z,4.70
2018-07-17T02:31:10.203Z,5.62
2018-07-17T02:36:03.378Z,11.70
2018-07-17T02:40:56.611Z,8.60
2018-07-17T02:45:49.861Z,8.47
2018-07-17T02:50:43.215Z,10.90
2018-07-17T02:55:36.414Z,6.90
2018-07-17T03:00:29.658Z,6.53
2018-07-17T03:05:22.867Z,4.83
2018-07-17T03:10:16.101Z,4.75
2018-07-17T03:15:09.280Z,5.10
2018-07-17T03:20:02.608Z,5.08
2018-07-17T03:24:55.829Z,4.97
2018-07-17T03:29:49.111Z,8.18
2018-07-17T03:34:42.316Z,8.63
2018-07-17T03:39:35.558Z,7.72
2018-07-17T03:44:28.777Z,7.50
2018-07-17T03:49:22.026Z,6.00
2018-07-17T03:54:15.221Z,5.97
2018-07-17T03:59:08.483Z,7.70
2018-07-17T04:04:01.804Z,6.03
2018-07-17T04:08:54.941Z,7.87
2018-07-17T04:13:48.152Z,7.27
2018-07-17T04:18:41.337Z,6.20
2018-07-17T04:23:34.566Z,7.13
2018-07-17T04:28:27.839Z,8.13
2018-07-17T04:33:21.252Z,6.30
2018-07-17T04:38:14.434Z,8.93
2018-07-17T04:43:07.628Z,9.43
2018-07-17T04:48:00.833Z,8.63
2018-07-17T04:52:54.047Z,7.83
2018-07-17T04:57:47.224Z,8.73
2018-07-17T05:02:40.354Z,7.50
2018-07-17T05:07:33.538Z,8.63
2018-07-17T05:12:26.777Z,7.83
2018-07-17T05:17:20.019Z,6.90
2018-07-17T05:22:13.146Z,6.83
2018-07-17T05:27:06.321Z,6.07
2018-07-17T05:31:59.535Z,6.90
2018-07-17T05:36:52.732Z,6.42
2018-07-17T05:41:45.980Z,6.17
2018-07-17T05:46:39.085Z,9.97
2018-07-17T05:51:32.313Z,7.77
2018-07-17T05:56:25.539Z,9.50
2018-07-17T06:01:19.232Z,11.30
2018-07-17T06:06:12.504Z,7.40
2018-07-17T06:11:06.213Z,7.77
2018-07-17T06:15:59.416Z,8.27
2018-07-17T06:20:52.581Z,6.20
2018-07-17T06:25:45.786Z,8.57
2018-07-17T06:30:38.996Z,8.57
2018-07-17T06:35:32.210Z,8.33
2018-07-17T06:40:25.355Z,10.27
2018-07-17T06:45:18.596Z,7.07
2018-07-17T06:50:11.904Z,6.03
2018-07-17T06:55:05.131Z,4.73
2018-07-17T06:59:58.405Z,6.47
2018-07-17T07:04:51.621Z,8.37
2018-07-17T07:09:45.544Z,6.53
2018-07-17T07:14:39.430Z,7.90
2018-07-17T07:19:32.792Z,6.67
2018-07-17T07:24:26.004Z,6.62
2018-07-17T07:29:19.287Z,8.30
2018-07-17T07:34:12.524Z,8.83
2018-07-17T07:39:08.416Z,9.20
2018-07-17T07:44:02.528Z,8.00
2018-07-17T07:48:55.776Z,8.07
2018-07-17T07:53:49.018Z,8.70
2018-07-17T07:58:42.131Z,7.90
2018-07-17T08:03:35.413Z,7.70
2018-07-17T08:08:28.643Z,7.97
2018-07-17T08:13:21.896Z,8.30
2018-07-17T08:18:15.526Z,10.77
2018-07-17T08:23:08.816Z,11.67
2018-07-17T08:28:02.139Z,9.27
2018-07-17T08:32:55.375Z,7.90
2018-07-17T08:37:48.641Z,10.38
2018-07-17T08:42:41.934Z,8.40
2018-07-17T08:47:35.096Z,7.17
2018-07-17T08:52:28.309Z,6.43
2018-07-17T08:57:21.514Z,6.37
2018-07-17T09:02:14.769Z,5.53
2018-07-17T09:07:08.008Z,7.20
2018-07-17T09:12:01.507Z,6.67
2018-07-17T09:16:54.703Z,8.07
2018-07-17T09:21:47.971Z,7.07
2018-07-17T09:26:41.094Z,6.87
2018-07-17T09:31:34.318Z,5.63
2018-07-17T09:36:27.573Z,5.53
2018-07-17T09:41:20.861Z,4.83
2018-07-17T09:46:14.092Z,4.10
2018-07-17T09:51:07.845Z,3.27
2018-07-17T09:56:01.113Z,5.03
2018-07-17T10:00:59.893Z,6.00
2018-07-17T10:05:53.000Z,5.30
2018-07-17T10:10:46.239Z,6.47
2018-07-17T10:15:39.357Z,6.47
2018-07-17T10:20:32.661Z,5.80
2018-07-17T10:25:25.916Z,7.20
2018-07-17T10:30:19.161Z,3.62
2018-07-17T10:35:12.437Z,4.97
2018-07-17T10:40:06.295Z,2.60
2018-07-17T10:45:01.800Z,2.70
2018-07-17T10:49:55.020Z,6.93
2018-07-17T10:54:48.232Z,4.42
2018-07-17T10:59:41.536Z,1.77
2018-07-17T11:04:34.767Z,3.15
2018-07-17T11:09:28.119Z,4.30
2018-07-17T11:14:21.349Z,3.45
2018-07-17T11:19:14.587Z,3.77
2018-07-17T11:24:07.815Z,3.45
2018-07-17T11:29:01.037Z,2.57
2018-07-17T11:33:54.248Z,3.83
2018-07-17T11:38:47.559Z,5.63
2018-07-17T11:43:40.762Z,2.83
2018-07-17T11:48:34.005Z,5.10
2018-07-17T11:53:27.144Z,3.17
2018-07-17T11:58:20.396Z,2.10
2018-07-17T12:03:13.721Z,3.53
2018-07-17T12:08:06.905Z,2.83
2018-07-17T12:13:00.189Z,4.43
2018-07-17T12:17:53.459Z,5.43
2018-07-17T12:22:46.679Z,5.47
2018-07-17T12:27:40.005Z,8.83
2018-07-17T12:32:33.279Z,6.70
2018-07-17T12:37:26.560Z,2.80
2018-07-17T12:42:19.832Z,4.12
2018-07-17T12:47:13.049Z,2.83
2018-07-17T12:52:06.443Z,5.75
2018-07-17T12:56:59.642Z,5.53
2018-07-17T13:01:52.949Z,4.95
2018-07-17T13:06:46.175Z,2.97
2018-07-17T13:11:39.385Z,3.30
2018-07-17T13:16:32.951Z,3.90
2018-07-17T13:21:26.297Z,3.90
2018-07-17T13:26:19.539Z,7.70
2018-07-17T13:31:12.841Z,3.67
2018-07-17T13:36:06.078Z,3.45
2018-07-17T13:40:59.339Z,2.53
2018-07-17T13:45:52.567Z,2.92
2018-07-17T13:50:45.780Z,3.13
2018-07-17T13:55:39.948Z,3.60
2018-07-17T14:00:33.433Z,3.83
2018-07-17T14:05:28.135Z,3.95
2018-07-17T14:10:21.289Z,4.13
2018-07-17T14:15:14.561Z,2.73
2018-07-17T14:20:07.853Z,2.70
2018-07-17T14:25:01.099Z,3.98
2018-07-17T14:29:54.350Z,2.00
2018-07-17T14:34:47.605Z,4.80
2018-07-17T14:39:40.760Z,4.17
2018-07-17T14:44:34.026Z,3.73
2018-07-17T14:49:27.224Z,5.10
2018-07-17T14:54:20.386Z,3.60
2018-07-17T14:59:13.591Z,2.30
2018-07-17T15:04:06.834Z,3.63
2018-07-17T15:09:00.049Z,4.03
2018-07-17T15:13:54.223Z,5.15
2018-07-17T15:18:47.350Z,3.40
2018-07-17T15:23:40.593Z,3.50
2018-07-17T15:28:33.814Z,4.37
2018-07-17T15:33:27.082Z,3.17
2018-07-17T15:38:20.335Z,6.97
2018-07-17T15:43:13.568Z,4.42
2018-07-17T15:48:06.715Z,4.50
2018-07-17T15:53:00.009Z,3.30
2018-07-17T15:57:53.385Z,2.83
2018-07-17T16:02:46.506Z,3.92
2018-07-17T16:07:39.755Z,4.30
2018-07-17T16:12:32.974Z,7.20
2018-07-17T16:17:26.198Z,7.10
2018-07-17T16:22:19.467Z,3.30
2018-07-17T16:27:12.689Z,4.30
2018-07-17T16:32:06.176Z,4.50
2018-07-17T16:36:59.351Z,6.57
2018-07-17T16:41:52.602Z,5.70
2018-07-17T16:46:45.858Z,5.53
2018-07-17T16:51:39.103Z,3.45
2018-07-17T16:56:32.291Z,4.40
2018-07-17T17:01:25.614Z,5.37
2018-07-17T17:06:18.726Z,4.87
2018-07-17T17:11:11.929Z,2.73
2018-07-17T17:16:05.545Z,5.13
2018-07-17T17:20:59.706Z,2.30
2018-07-17T17:25:52.933Z,6.08
2018-07-17T17:30:46.165Z,5.53
2018-07-17T17:35:39.393Z,6.58
2018-07-17T17:40:32.610Z,5.93
2018-07-17T17:45:25.883Z,4.70
2018-07-17T17:50:19.089Z,6.47
2018-07-17T17:55:12.289Z,5.65
2018-07-17T18:00:06.188Z,6.37
2018-07-17T18:04:59.284Z,4.87
2018-07-17T18:09:52.502Z,5.13
2018-07-17T18:14:45.737Z,5.23
2018-07-17T18:19:39.066Z,5.97
2018-07-17T18:24:32.267Z,9.17
2018-07-17T18:29:25.528Z,8.23
2018-07-17T18:34:18.690Z,5.77
2018-07-17T18:39:11.897Z,5.53
2018-07-17T18:44:05.143Z,5.73
2018-07-17T18:48:58.284Z,6.72
2018-07-17T18:53:51.521Z,6.80
2018-07-17T18:58:44.776Z,5.17
2018-07-17T19:03:38.365Z,7.73
2018-07-17T19:08:31.626Z,5.47
2018-07-17T19:13:24.848Z,4.53
2018-07-17T19:18:18.238Z,5.67
2018-07-17T19:23:11.481Z,4.25
2018-07-17T19:28:04.753Z,4.63
2018-07-17T19:32:58.368Z,5.22
2018-07-17T19:37:51.609Z,4.37
2018-07-17T19:42:44.860Z,3.47
2018-07-17T19:47:38.840Z,6.63
2018-07-17T19:52:32.747Z,3.93
2018-07-17T19:57:25.985Z,4.17
2018-07-17T20:02:19.558Z,4.12
2018-07-17T20:07:12.936Z,5.30
2018-07-17T20:16:56.953Z,5.93
2018-07-17T20:21:50.284Z,4.20
2018-07-17T20:26:43.522Z,5.60
2018-07-17T20:31:36.836Z,5.23
2018-07-17T20:36:30.092Z,6.70
2018-07-17T20:41:23.315Z,4.27
2018-07-17T20:46:16.630Z,6.25
2018-07-17T20:51:10.225Z,3.33
2018-07-17T20:56:03.503Z,5.40
2018-07-17T21:00:56.777Z,7.15
2018-07-17T21:05:50.121Z,6.60
2018-07-17T21:10:43.265Z,6.10
2018-07-17T21:15:36.504Z,7.27
2018-07-17T21:20:29.794Z,7.92
2018-07-17T21:25:23.092Z,6.20
2018-07-17T21:30:16.313Z,3.45
2018-07-17T21:35:09.578Z,6.70
2018-07-17T21:40:02.831Z,4.45
2018-07-17T21:44:56.037Z,6.53
2018-07-17T21:49:49.278Z,3.80
2018-07-17T22:03:03.354Z,6.60
2018-07-17T22:07:56.565Z,5.50
2018-07-17T22:12:49.796Z,6.33
2018-07-17T22:17:43.113Z,4.90
2018-07-17T22:22:36.327Z,4.78
2018-07-17T22:27:29.559Z,5.13
2018-07-17T22:32:22.816Z,6.47
2018-07-17T22:37:16.070Z,3.50
2018-07-17T22:42:09.259Z,3.58
2018-07-17T22:47:02.479Z,4.80
2018-07-17T22:51:55.615Z,2.50
2018-07-17T22:56:48.837Z,4.27
2018-07-17T23:01:42.049Z,5.93
2018-07-17T23:06:35.661Z,5.83
2018-07-17T23:11:28.868Z,4.47
2018-07-17T23:16:22.094Z,3.23
2018-07-17T23:21:15.353Z,5.00
2018-07-17T23:26:09.368Z,5.47
2018-07-17T23:31:02.591Z,6.53
2018-07-17T23:35:55.819Z,5.72
2018-07-17T23:40:49.012Z,6.27
2018-07-17T23:45:42.132Z,6.12
2018-07-17T23:50:35.383Z,8.10
2018-07-17T23:55:28.615Z,6.15
